Time;durP1;ratioP1;P1;durP2;ratioP2;P2;SDS_P1;SDS_P2;PMS_P1;PMS_P2;Temp;Humidity;BMP_temperature;BMP_pressure;BME280_temperature;BME280_humidity;BME280_pressure;Samples;Min_cycle;Max_cycle;Signal;HPM_P1;HPM_P2
2021/12/07 00:00:33;;;;;;;;;2.00;2.00;;;;;;;;5097957;27;45236;-47
2021/12/07 00:02:58;;;;;;;;;3.00;1.75;;;;;;;;5095943;27;46200;-47
2021/12/07 00:05:23;;;;;;;;;2.00;1.00;;;;;;;;5098539;27;45243;-48
2021/12/07 00:07:48;;;;;;;;;1.00;1.00;;;;;;;;5098738;27;45148;-44
2021/12/07 00:10:15;;;;;;;;;2.25;1.00;;;;;;;;5098800;27;45382;-48
2021/12/07 00:12:42;;;;;;;;;2.50;2.50;;;;;;;;5098401;27;46407;-44
2021/12/07 00:15:09;;;;;;;;;3.00;1.50;;;;;;;;5098492;27;45362;-48
2021/12/07 00:17:35;;;;;;;;;2.33;1.33;;;;;;;;5097905;27;45372;-46
2021/12/07 00:20:02;;;;;;;;;1.00;1.00;;;;;;;;5097973;27;45517;-45
2021/12/07 00:22:27;;;;;;;;;0.00;0.00;;;;;;;;5097793;27;45398;-45
2021/12/07 00:24:53;;;;;;;;;1.33;0.00;;;;;;;;5098173;27;45441;-47
2021/12/07 00:27:18;;;;;;;;;1.25;1.00;;;;;;;;5094964;27;45473;-49
2021/12/07 00:29:43;;;;;;;;;2.50;2.25;;;;;;;;5098203;27;45616;-44
2021/12/07 00:34:56;;;;;;;;;4.25;1.50;;;;;;;;5098391;27;46262;-46
2021/12/07 00:37:22;;;;;;;;;2.00;1.25;;;;;;;;5098645;27;45324;-47
2021/12/07 00:39:47;;;;;;;;;1.00;1.00;;;;;;;;5097483;27;45441;-48
2021/12/07 00:42:12;;;;;;;;;0.00;0.00;;;;;;;;5097508;27;46669;-46
2021/12/07 00:44:37;;;;;;;;;0.50;0.50;;;;;;;;5091883;27;45459;-45
2021/12/07 00:47:03;;;;;;;;;1.75;1.75;;;;;;;;5098194;27;45318;-45
2021/12/07 00:49:28;;;;;;;;;1.75;0.50;;;;;;;;5079429;27;45528;-48
2021/12/07 00:51:53;;;;;;;;;1.00;1.00;;;;;;;;5098411;27;46501;-46
2021/12/07 00:54:18;;;;;;;;;1.00;1.00;;;;;;;;5098049;27;45404;-48
2021/12/07 00:56:43;;;;;;;;;1.00;1.00;;;;;;;;5096043;27;45500;-46
2021/12/07 00:59:09;;;;;;;;;1.00;1.00;;;;;;;;5097523;27;45628;-50
2021/12/07 01:01:34;;;;;;;;;0.75;0.75;;;;;;;;5097190;27;45444;-46
2021/12/07 01:03:59;;;;;;;;;2.00;1.25;;;;;;;;5097687;27;45601;-47
2021/12/07 01:09:12;;;;;;;;;1.00;1.00;;;;;;;;5097875;27;45346;-47
2021/12/07 01:25:19;;;;;;;;;0.00;0.00;;;;;;;;5077364;28;45370;-45
2021/12/07 01:27:48;;;;;;;;;0.00;0.00;;;;;;;;5096172;27;45700;-46
2021/12/07 01:30:19;;;;;;;;;0.33;0.33;;;;;;;;5097743;27;45540;-48
2021/12/07 01:37:58;;;;;;;;;0.75;0.75;;;;;;;;5077822;27;45670;-46
2021/12/07 01:51:24;;;;;;;;;0.50;0.50;;;;;;;;5079549;27;45399;-48
2021/12/07 01:59:34;;;;;;;;;0.75;0.75;;;;;;;;5097278;27;45418;-48
2021/12/07 02:02:00;;;;;;;;;1.00;0.00;;;;;;;;5096254;27;45405;-45
2021/12/07 02:04:25;;;;;;;;;1.00;1.00;;;;;;;;5096774;27;45611;-46
2021/12/07 02:06:50;;;;;;;;;1.00;1.00;;;;;;;;5096051;27;45397;-48
2021/12/07 02:09:16;;;;;;;;;1.50;0.50;;;;;;;;5097374;27;45486;-47
2021/12/07 02:11:48;;;;;;;;;0.00;0.00;;;;;;;;5095839;27;45414;-47
2021/12/07 02:14:17;;;;;;;;;1.50;1.50;;;;;;;;5078321;27;47185;-47
2021/12/07 02:16:51;;;;;;;;;0.00;0.00;;;;;;;;5092481;27;45344;-46
2021/12/07 02:19:16;;;;;;;;;2.00;1.00;;;;;;;;5096095;27;45266;-48
2021/12/07 02:21:42;;;;;;;;;1.00;0.33;;;;;;;;5096436;27;45425;-45
2021/12/07 02:24:08;;;;;;;;;1.00;1.00;;;;;;;;5096762;27;45627;-43
2021/12/07 02:26:33;;;;;;;;;1.75;1.75;;;;;;;;5095262;27;45419;-47
2021/12/07 02:28:58;;;;;;;;;1.33;1.00;;;;;;;;5094398;27;45605;-44
2021/12/07 02:31:24;;;;;;;;;0.00;0.00;;;;;;;;5090945;27;45571;-46
2021/12/07 02:33:49;;;;;;;;;0.25;0.25;;;;;;;;5076309;28;45717;-45
2021/12/07 02:36:15;;;;;;;;;1.00;0.00;;;;;;;;5076606;28;45354;-45
2021/12/07 02:38:40;;;;;;;;;3.25;0.00;;;;;;;;5076980;27;45224;-44
2021/12/07 02:41:06;;;;;;;;;0.00;0.00;;;;;;;;5070023;27;45430;-48
2021/12/07 02:43:32;;;;;;;;;1.25;0.00;;;;;;;;5096364;27;45729;-48
2021/12/07 02:45:57;;;;;;;;;0.00;0.00;;;;;;;;5096535;27;45377;-46
2021/12/07 02:48:23;;;;;;;;;2.50;1.00;;;;;;;;5083733;27;45504;-48
2021/12/07 02:50:50;;;;;;;;;1.50;1.50;;;;;;;;5091303;27;45336;-46
2021/12/07 02:53:15;;;;;;;;;1.00;0.50;;;;;;;;5096085;27;45469;-44
2021/12/07 02:55:40;;;;;;;;;2.00;1.00;;;;;;;;5096471;27;45352;-50
2021/12/07 02:58:05;;;;;;;;;1.75;1.75;;;;;;;;5096621;27;45363;-50
2021/12/07 03:00:41;;;;;;;;;1.25;1.00;;;;;;;;5091415;27;45578;-49
2021/12/07 03:03:09;;;;;;;;;2.00;2.00;;;;;;;;5077911;27;46829;-45
2021/12/07 03:27:01;;;;;;;;;2.50;1.50;;;;;;;;5099690;27;45390;-48
2021/12/07 03:29:26;;;;;;;;;1.50;1.50;;;;;;;;5099533;27;45230;-44
2021/12/07 03:31:51;;;;;;;;;1.75;1.75;;;;;;;;5098685;27;45421;-44
2021/12/07 03:34:16;;;;;;;;;6.50;1.75;;;;;;;;5098038;27;46171;-45
2021/12/07 03:36:42;;;;;;;;;3.00;1.00;;;;;;;;5061231;28;45379;-47
2021/12/07 03:39:08;;;;;;;;;1.75;1.75;;;;;;;;5081217;27;45295;-47
2021/12/07 03:41:33;;;;;;;;;1.25;0.75;;;;;;;;5099442;27;45280;-45
2021/12/07 03:43:59;;;;;;;;;1.50;1.50;;;;;;;;5099504;27;46546;-46
2021/12/07 03:46:24;;;;;;;;;3.00;0.00;;;;;;;;5097914;27;45307;-45
2021/12/07 03:48:51;;;;;;;;;1.75;1.00;;;;;;;;5098692;27;45430;-47
2021/12/07 03:51:16;;;;;;;;;2.00;1.00;;;;;;;;5099126;27;45480;-47
2021/12/07 03:53:41;;;;;;;;;0.75;0.75;;;;;;;;5099140;27;45545;-46
2021/12/07 03:56:08;;;;;;;;;1.50;1.50;;;;;;;;5098345;27;45504;-44
2021/12/07 03:58:33;;;;;;;;;0.00;0.00;;;;;;;;5099125;27;45446;-45
2021/12/07 04:00:58;;;;;;;;;2.50;2.00;;;;;;;;5098213;27;45428;-45
2021/12/07 04:03:24;;;;;;;;;1.50;1.50;;;;;;;;5099003;27;46814;-46
2021/12/07 04:05:53;;;;;;;;;1.50;1.50;;;;;;;;5098903;27;45342;-45
2021/12/07 04:08:20;;;;;;;;;2.25;1.00;;;;;;;;5079224;27;45498;-46
2021/12/07 04:10:46;;;;;;;;;2.00;1.25;;;;;;;;5099134;27;45172;-44
2021/12/07 04:13:11;;;;;;;;;2.00;1.25;;;;;;;;5098193;27;45449;-46
2021/12/07 04:15:37;;;;;;;;;4.50;2.25;;;;;;;;5098477;27;45461;-47
2021/12/07 04:18:03;;;;;;;;;3.00;0.50;;;;;;;;5076033;27;45555;-45
2021/12/07 04:20:28;;;;;;;;;1.25;1.00;;;;;;;;5098018;27;45364;-46
2021/12/07 04:22:54;;;;;;;;;0.75;0.75;;;;;;;;5098016;27;45455;-49
2021/12/07 04:25:20;;;;;;;;;1.00;1.00;;;;;;;;5098774;27;45497;-46
2021/12/07 04:27:46;;;;;;;;;0.75;0.00;;;;;;;;5098888;27;45339;-49
2021/12/07 04:30:13;;;;;;;;;0.75;0.75;;;;;;;;5098097;27;45474;-45
2021/12/07 04:32:39;;;;;;;;;2.00;1.00;;;;;;;;5098445;27;45409;-47
2021/12/07 04:35:05;;;;;;;;;0.50;0.50;;;;;;;;5079215;27;45267;-48
2021/12/07 04:37:30;;;;;;;;;1.00;1.00;;;;;;;;5098364;27;45353;-49
2021/12/07 04:39:55;;;;;;;;;0.75;0.75;;;;;;;;5079572;27;45365;-49
2021/12/07 04:42:20;;;;;;;;;1.00;1.00;;;;;;;;5098018;27;45329;-48
2021/12/07 04:44:52;;;;;;;;;2.00;1.00;;;;;;;;5098607;27;45401;-47
2021/12/07 04:47:25;;;;;;;;;1.50;1.50;;;;;;;;5096367;27;45575;-47
2021/12/07 04:57:59;;;;;;;;;5.75;1.00;;;;;;;;5089891;27;45496;-45
2021/12/07 05:00:26;;;;;;;;;1.00;1.00;;;;;;;;5080623;27;45576;-47
2021/12/07 05:03:06;;;;;;;;;3.00;1.00;;;;;;;;5097463;27;46289;-48
2021/12/07 05:05:36;;;;;;;;;1.75;1.75;;;;;;;;5098203;27;45473;-47
2021/12/07 05:08:05;;;;;;;;;3.00;2.00;;;;;;;;5097842;27;45207;-50
2021/12/07 05:10:34;;;;;;;;;2.25;2.25;;;;;;;;5097715;27;45279;-49
2021/12/07 05:16:29;;;;;;;;;1.75;1.75;;;;;;;;5097732;27;45488;-47
2021/12/07 05:18:52;;;;;;;;;4.25;2.00;;;;;;;;5082876;27;45318;-47
2021/12/07 05:24:07;;;;;;;;;1.75;1.75;;;;;;;;5097514;27;45787;-47
2021/12/07 05:37:49;;;;;;;;;2.00;2.00;;;;;;;;5096617;27;45241;-46
2021/12/07 05:40:16;;;;;;;;;2.00;2.00;;;;;;;;5097601;27;45333;-47
2021/12/07 05:42:41;;;;;;;;;1.25;1.25;;;;;;;;5097356;27;45420;-48
2021/12/07 05:45:08;;;;;;;;;5.00;5.00;;;;;;;;5097081;27;45658;-46
2021/12/07 05:47:33;;;;;;;;;4.00;3.00;;;;;;;;5094991;27;45466;-46
2021/12/07 05:49:59;;;;;;;;;5.00;3.00;;;;;;;;5097311;27;45361;-46
2021/12/07 05:52:24;;;;;;;;;6.25;6.25;;;;;;;;5097655;27;45295;-46
2021/12/07 05:54:49;;;;;;;;;7.00;6.00;;;;;;;;5097367;27;45204;-47
2021/12/07 05:57:15;;;;;;;;;5.25;5.25;;;;;;;;5096056;27;45348;-47
2021/12/07 05:59:40;;;;;;;;;3.50;3.00;;;;;;;;5097548;27;45361;-49
2021/12/07 06:02:05;;;;;;;;;10.50;6.75;;;;;;;;5092126;27;45492;-46
2021/12/07 06:04:31;;;;;;;;;8.00;8.00;;;;;;;;5097013;27;46142;-46
2021/12/07 06:06:57;;;;;;;;;5.50;5.50;;;;;;;;5096297;27;45437;-47
2021/12/07 06:09:23;;;;;;;;;6.25;6.00;;;;;;;;5096277;27;45519;-45
2021/12/07 06:11:50;;;;;;;;;7.00;7.00;;;;;;;;5078193;27;45264;-46
2021/12/07 06:14:18;;;;;;;;;6.50;5.50;;;;;;;;5096017;27;45349;-44
2021/12/07 06:16:44;;;;;;;;;6.00;5.50;;;;;;;;5095059;27;45258;-44
2021/12/07 06:19:09;;;;;;;;;8.25;6.00;;;;;;;;5096493;27;45403;-45
2021/12/07 06:21:34;;;;;;;;;8.50;6.50;;;;;;;;5096778;27;45477;-46
2021/12/07 06:23:59;;;;;;;;;12.75;7.75;;;;;;;;5095512;27;47798;-46
2021/12/07 06:26:24;;;;;;;;;9.50;6.25;;;;;;;;5084143;27;45374;-46
2021/12/07 06:28:50;;;;;;;;;9.00;6.50;;;;;;;;5096971;27;45358;-47
2021/12/07 06:31:15;;;;;;;;;10.25;7.50;;;;;;;;5095527;27;45408;-46
2021/12/07 06:33:40;;;;;;;;;10.25;9.50;;;;;;;;5094849;27;45431;-44
2021/12/07 06:36:06;;;;;;;;;10.00;8.25;;;;;;;;5096482;27;45532;-45
2021/12/07 06:38:32;;;;;;;;;8.75;8.75;;;;;;;;5095847;27;45620;-47
2021/12/07 06:40:58;;;;;;;;;10.50;8.75;;;;;;;;5095906;27;45264;-46
2021/12/07 06:43:23;;;;;;;;;10.50;10.50;;;;;;;;5095221;27;45280;-47
2021/12/07 06:45:49;;;;;;;;;9.25;7.00;;;;;;;;5076729;27;45884;-43
2021/12/07 06:48:15;;;;;;;;;14.25;11.75;;;;;;;;5094824;27;45551;-42
2021/12/07 06:50:40;;;;;;;;;11.50;11.50;;;;;;;;5095837;27;45446;-41
2021/12/07 06:53:06;;;;;;;;;10.00;10.00;;;;;;;;5108934;27;46353;-41
2021/12/07 06:55:31;;;;;;;;;11.75;10.75;;;;;;;;5099245;27;45500;-57
2021/12/07 06:57:56;;;;;;;;;13.75;12.25;;;;;;;;5093876;27;45534;-57
2021/12/07 07:00:22;;;;;;;;;11.00;11.00;;;;;;;;5097380;27;45509;-58
2021/12/07 07:02:47;;;;;;;;;11.00;10.50;;;;;;;;5101251;27;45231;-54
2021/12/07 07:05:12;;;;;;;;;11.25;11.00;;;;;;;;5096029;27;45716;-44
2021/12/07 07:07:38;;;;;;;;;21.00;19.00;;;;;;;;5083867;27;45632;-49
2021/12/07 07:10:04;;;;;;;;;11.50;11.50;;;;;;;;5099772;27;45304;-46
2021/12/07 07:12:30;;;;;;;;;18.75;15.50;;;;;;;;5101664;27;46520;-49
2021/12/07 07:14:55;;;;;;;;;15.50;13.25;;;;;;;;5087195;27;45460;-44
2021/12/07 07:17:20;;;;;;;;;15.50;14.00;;;;;;;;5098112;27;45532;-48
2021/12/07 07:19:45;;;;;;;;;22.00;19.75;;;;;;;;5099292;27;45381;-49
2021/12/07 07:22:11;;;;;;;;;15.25;15.25;;;;;;;;5098053;27;45535;-47
2021/12/07 07:24:37;;;;;;;;;15.50;15.00;;;;;;;;5097397;27;45503;-52
2021/12/07 07:27:02;;;;;;;;;20.00;18.50;;;;;;;;5080140;27;45492;-47
2021/12/07 07:29:27;;;;;;;;;24.50;21.00;;;;;;;;5098888;27;45452;-49
2021/12/07 07:31:53;;;;;;;;;22.00;20.25;;;;;;;;5097217;27;46189;-46
2021/12/07 07:34:18;;;;;;;;;22.75;19.75;;;;;;;;5099042;27;45441;-49
2021/12/07 07:36:44;;;;;;;;;19.75;19.75;;;;;;;;5099264;27;45440;-45
2021/12/07 07:39:09;;;;;;;;;25.25;18.00;;;;;;;;5098842;27;45497;-47
2021/12/07 07:41:34;;;;;;;;;16.50;15.25;;;;;;;;5099447;27;45333;-47
2021/12/07 07:43:59;;;;;;;;;18.75;17.50;;;;;;;;5098781;27;45338;-48
2021/12/07 07:46:25;;;;;;;;;24.75;20.25;;;;;;;;5098582;27;45302;-47
2021/12/07 07:48:50;;;;;;;;;20.75;18.00;;;;;;;;5099205;27;45413;-49
2021/12/07 07:51:15;;;;;;;;;11.00;10.00;;;;;;;;5098655;27;46518;-48
2021/12/07 07:53:41;;;;;;;;;22.00;19.25;;;;;;;;5099219;27;45321;-48
2021/12/07 07:56:07;;;;;;;;;17.25;15.25;;;;;;;;5099181;27;45429;-49
2021/12/07 07:58:32;;;;;;;;;20.00;17.50;;;;;;;;5097997;27;45476;-49
2021/12/07 08:00:57;;;;;;;;;21.25;18.25;;;;;;;;5097825;27;45985;-46
2021/12/07 08:03:23;;;;;;;;;24.00;20.50;;;;;;;;5098451;27;45309;-48
2021/12/07 08:05:48;;;;;;;;;21.00;18.25;;;;;;;;5098692;27;45688;-48
2021/12/07 08:08:14;;;;;;;;;17.75;17.75;;;;;;;;5098205;27;45595;-50
2021/12/07 08:10:39;;;;;;;;;16.00;15.00;;;;;;;;5096356;27;46404;-48
2021/12/07 08:13:06;;;;;;;;;20.00;19.50;;;;;;;;5098193;27;45377;-47
2021/12/07 08:15:35;;;;;;;;;15.00;15.00;;;;;;;;5098489;27;45365;-48
2021/12/07 08:18:01;;;;;;;;;16.25;15.00;;;;;;;;5080965;27;45371;-47
2021/12/07 08:20:26;;;;;;;;;20.00;18.00;;;;;;;;5097283;27;46175;-48
2021/12/07 08:22:52;;;;;;;;;15.75;15.75;;;;;;;;5098496;27;45378;-51
2021/12/07 08:25:17;;;;;;;;;15.25;15.25;;;;;;;;5098745;27;45251;-47
2021/12/07 08:27:43;;;;;;;;;18.75;14.75;;;;;;;;5098600;27;45308;-48
2021/12/07 08:30:09;;;;;;;;;18.25;15.25;;;;;;;;5098122;27;46189;-46
2021/12/07 08:32:34;;;;;;;;;14.75;13.75;;;;;;;;5079603;27;45376;-47
2021/12/07 08:34:59;;;;;;;;;13.50;11.75;;;;;;;;5078117;28;45302;-49
2021/12/07 08:37:25;;;;;;;;;11.00;11.00;;;;;;;;5093675;27;45268;-51
2021/12/07 08:39:50;;;;;;;;;11.25;10.25;;;;;;;;5098408;27;45519;-47
2021/12/07 08:42:15;;;;;;;;;13.00;12.25;;;;;;;;5097851;27;45217;-49
2021/12/07 08:44:41;;;;;;;;;14.00;13.00;;;;;;;;5098250;27;45349;-47
2021/12/07 08:47:06;;;;;;;;;13.00;11.50;;;;;;;;5097793;27;45434;-50
2021/12/07 08:49:32;;;;;;;;;11.50;11.50;;;;;;;;5098128;27;45239;-51
2021/12/07 08:51:57;;;;;;;;;11.50;11.25;;;;;;;;5098166;27;45271;-49
2021/12/07 08:59:45;;;;;;;;;14.25;12.00;;;;;;;;5098060;27;45693;-50
2021/12/07 09:02:14;;;;;;;;;18.50;14.50;;;;;;;;5095948;27;45298;-54
2021/12/07 09:04:40;;;;;;;;;15.25;15.25;;;;;;;;5096800;27;45373;-48
2021/12/07 09:07:05;;;;;;;;;19.00;17.50;;;;;;;;5097247;27;45374;-50
2021/12/07 09:09:31;;;;;;;;;19.50;16.00;;;;;;;;5078643;27;45463;-47
2021/12/07 09:11:56;;;;;;;;;18.75;17.00;;;;;;;;5096208;27;45408;-48
2021/12/07 09:14:23;;;;;;;;;17.50;16.50;;;;;;;;5079444;27;45229;-50
2021/12/07 09:16:48;;;;;;;;;19.75;14.75;;;;;;;;5096732;27;45386;-45
2021/12/07 09:19:14;;;;;;;;;15.50;13.25;;;;;;;;5079100;27;45963;-45
2021/12/07 09:21:39;;;;;;;;;14.00;14.00;;;;;;;;5094018;27;45540;-48
2021/12/07 09:24:05;;;;;;;;;18.00;17.25;;;;;;;;5097880;27;45459;-46
2021/12/07 09:26:30;;;;;;;;;20.50;19.00;;;;;;;;5096741;27;45601;-48
2021/12/07 09:28:56;;;;;;;;;22.50;19.75;;;;;;;;5079157;27;45591;-48
2021/12/07 09:31:22;;;;;;;;;18.00;18.00;;;;;;;;5093248;27;45531;-49
2021/12/07 09:33:48;;;;;;;;;20.50;17.25;;;;;;;;5095209;27;45539;-50
2021/12/07 09:36:13;;;;;;;;;17.25;16.50;;;;;;;;5078685;27;45438;-46
2021/12/07 09:38:39;;;;;;;;;18.00;15.75;;;;;;;;5096925;27;46054;-48
2021/12/07 09:41:06;;;;;;;;;19.75;17.50;;;;;;;;5096384;27;45592;-50
2021/12/07 09:43:32;;;;;;;;;18.00;15.75;;;;;;;;5097265;27;45448;-50
2021/12/07 09:45:58;;;;;;;;;19.50;18.50;;;;;;;;5096739;27;45645;-47
2021/12/07 09:48:24;;;;;;;;;19.00;19.00;;;;;;;;5095855;27;45365;-51
2021/12/07 09:50:51;;;;;;;;;25.00;21.00;;;;;;;;5096958;27;45378;-47
2021/12/07 09:53:17;;;;;;;;;22.25;18.75;;;;;;;;5097143;27;45329;-47
2021/12/07 09:55:43;;;;;;;;;18.75;17.50;;;;;;;;5096916;27;45335;-48
2021/12/07 09:58:09;;;;;;;;;19.25;17.75;;;;;;;;5096447;27;46401;-47
2021/12/07 10:00:35;;;;;;;;;20.75;17.00;;;;;;;;5092741;27;45481;-48
2021/12/07 10:03:00;;;;;;;;;18.75;17.00;;;;;;;;5095018;27;45204;-49
2021/12/07 10:05:29;;;;;;;;;18.50;16.50;;;;;;;;5096656;27;45393;-49
2021/12/07 10:07:54;;;;;;;;;18.50;14.50;;;;;;;;5096404;27;46071;-49
2021/12/07 10:10:28;;;;;;;;;12.00;10.75;;;;;;;;5095718;27;45353;-46
2021/12/07 10:12:53;;;;;;;;;22.50;16.25;;;;;;;;5096395;27;45454;-45
2021/12/07 10:15:19;;;;;;;;;14.50;13.50;;;;;;;;5094750;27;45309;-46
2021/12/07 10:17:58;;;;;;;;;13.75;13.25;;;;;;;;5095744;27;46116;-49
2021/12/07 10:20:32;;;;;;;;;16.75;14.75;;;;;;;;5096183;27;45513;-47
2021/12/07 10:23:01;;;;;;;;;15.25;13.75;;;;;;;;5096303;27;45513;-47
2021/12/07 10:25:27;;;;;;;;;15.50;13.25;;;;;;;;5096547;27;45480;-48
2021/12/07 10:27:52;;;;;;;;;16.25;16.25;;;;;;;;5096615;27;45672;-47
2021/12/07 10:30:20;;;;;;;;;15.00;14.25;;;;;;;;5094155;27;45582;-45
2021/12/07 10:33:02;;;;;;;;;17.50;17.25;;;;;;;;5092639;27;45537;-46
2021/12/07 10:35:28;;;;;;;;;15.50;15.50;;;;;;;;5095558;27;45513;-48
2021/12/07 10:38:07;;;;;;;;;23.00;19.75;;;;;;;;5094446;27;45584;-47
2021/12/07 10:40:32;;;;;;;;;19.00;18.00;;;;;;;;5095433;27;45398;-46
2021/12/07 10:42:58;;;;;;;;;14.75;14.75;;;;;;;;5095049;27;45316;-48
2021/12/07 10:45:26;;;;;;;;;17.50;17.50;;;;;;;;5096011;27;45560;-48
2021/12/07 10:47:51;;;;;;;;;20.25;16.25;;;;;;;;5096391;27;45432;-49
2021/12/07 10:50:18;;;;;;;;;19.25;15.50;;;;;;;;5082378;27;45417;-47
2021/12/07 10:52:45;;;;;;;;;21.25;17.00;;;;;;;;5096594;27;45267;-47
2021/12/07 10:55:12;;;;;;;;;15.75;15.75;;;;;;;;5095262;27;45480;-48
2021/12/07 10:57:38;;;;;;;;;19.00;17.00;;;;;;;;5095585;27;46199;-47
2021/12/07 11:00:09;;;;;;;;;23.00;15.00;;;;;;;;5095649;27;45362;-47
2021/12/07 11:02:37;;;;;;;;;16.75;14.75;;;;;;;;5094441;27;45383;-49
2021/12/07 11:05:07;;;;;;;;;22.25;20.25;;;;;;;;5093472;27;45430;-47
2021/12/07 11:07:34;;;;;;;;;16.00;15.50;;;;;;;;5095428;27;45895;-50
2021/12/07 11:10:14;;;;;;;;;18.75;16.50;;;;;;;;5094520;27;45538;-47
2021/12/07 11:12:47;;;;;;;;;16.75;15.50;;;;;;;;5074581;27;45254;-51
2021/12/07 11:15:17;;;;;;;;;14.25;11.00;;;;;;;;5094225;27;45496;-50
2021/12/07 11:17:43;;;;;;;;;15.75;15.75;;;;;;;;5087563;27;46341;-47
2021/12/07 11:20:09;;;;;;;;;19.00;15.00;;;;;;;;5094618;27;45291;-46
2021/12/07 11:22:35;;;;;;;;;16.25;12.25;;;;;;;;5095645;27;45429;-47
2021/12/07 11:25:03;;;;;;;;;11.75;10.75;;;;;;;;5095801;27;45558;-47
2021/12/07 11:30:30;;;;;;;;;10.25;10.25;;;;;;;;5095330;27;45318;-46
2021/12/07 11:32:59;;;;;;;;;15.25;12.50;;;;;;;;5082320;27;45341;-47
2021/12/07 11:35:26;;;;;;;;;15.50;9.75;;;;;;;;5095577;27;45561;-47
2021/12/07 11:37:52;;;;;;;;;11.25;11.25;;;;;;;;5093802;27;46099;-47
2021/12/07 11:40:22;;;;;;;;;10.75;8.50;;;;;;;;5094943;27;45485;-48
2021/12/07 11:42:48;;;;;;;;;11.25;10.25;;;;;;;;5095686;27;45371;-48
2021/12/07 11:45:16;;;;;;;;;11.25;11.25;;;;;;;;5096574;27;45153;-48
2021/12/07 11:47:43;;;;;;;;;13.50;12.50;;;;;;;;5097446;27;47213;-48
2021/12/07 11:50:11;;;;;;;;;10.25;9.75;;;;;;;;5078097;27;45524;-48
2021/12/07 11:52:36;;;;;;;;;5.00;3.50;;;;;;;;5097655;27;45432;-46
2021/12/07 11:55:02;;;;;;;;;8.25;8.25;;;;;;;;5097622;27;45530;-46
2021/12/07 11:57:27;;;;;;;;;15.00;10.50;;;;;;;;5097153;27;46772;-51
2021/12/07 11:59:53;;;;;;;;;12.75;9.50;;;;;;;;5097119;27;45352;-48
2021/12/07 12:02:18;;;;;;;;;13.00;10.00;;;;;;;;5096505;27;45526;-48
2021/12/07 12:04:44;;;;;;;;;12.00;10.75;;;;;;;;5097930;27;45361;-47
2021/12/07 12:07:10;;;;;;;;;6.75;6.75;;;;;;;;5098493;27;45438;-47
2021/12/07 12:09:36;;;;;;;;;9.25;9.00;;;;;;;;5098072;27;45343;-47
2021/12/07 12:12:01;;;;;;;;;9.50;7.50;;;;;;;;5079280;27;45571;-46
2021/12/07 12:14:36;;;;;;;;;9.75;8.50;;;;;;;;5097888;27;45288;-47
2021/12/07 12:17:20;;;;;;;;;7.75;6.00;;;;;;;;5079139;27;46531;-47
2021/12/07 12:20:04;;;;;;;;;7.75;5.50;;;;;;;;5078158;27;45549;-46
2021/12/07 12:22:29;;;;;;;;;6.75;6.75;;;;;;;;5077560;27;45488;-48
2021/12/07 12:25:04;;;;;;;;;11.80;6.00;;;;;;;;5093083;27;45363;-49
2021/12/07 12:27:33;;;;;;;;;7.00;7.00;;;;;;;;5067802;27;47317;-51
2021/12/07 12:30:00;;;;;;;;;8.50;7.00;;;;;;;;5097177;27;45594;-53
2021/12/07 12:32:27;;;;;;;;;10.00;7.50;;;;;;;;5093566;27;45396;-51
2021/12/07 12:34:54;;;;;;;;;6.25;5.25;;;;;;;;5098162;27;45552;-47
2021/12/07 12:37:21;;;;;;;;;5.25;5.25;;;;;;;;5098422;27;46134;-47
2021/12/07 12:39:55;;;;;;;;;9.00;6.00;;;;;;;;5080247;27;45481;-50
2021/12/07 12:42:26;;;;;;;;;5.50;5.50;;;;;;;;5098176;27;45363;-48
2021/12/07 12:45:22;;;;;;;;;9.00;8.50;;;;;;;;5097943;27;45297;-49
2021/12/07 12:48:06;;;;;;;;;6.75;5.25;;;;;;;;5095113;27;45601;-48
2021/12/07 12:50:34;;;;;;;;;7.00;5.00;;;;;;;;5097682;27;45381;-48
2021/12/07 12:52:59;;;;;;;;;2.25;2.25;;;;;;;;5096528;27;45315;-59
2021/12/07 12:55:26;;;;;;;;;6.00;4.50;;;;;;;;5096083;27;45485;-44
2021/12/07 12:57:52;;;;;;;;;4.00;4.00;;;;;;;;5097038;27;45468;-44
2021/12/07 13:00:18;;;;;;;;;4.50;4.50;;;;;;;;5078639;27;45251;-47
2021/12/07 13:02:49;;;;;;;;;7.00;7.00;;;;;;;;5098282;27;45405;-48
2021/12/07 13:05:16;;;;;;;;;6.00;6.00;;;;;;;;5098162;27;45311;-46
2021/12/07 13:07:41;;;;;;;;;8.25;6.50;;;;;;;;5096283;27;46412;-45
2021/12/07 13:10:07;;;;;;;;;4.25;4.25;;;;;;;;5097808;27;45365;-48
2021/12/07 13:12:33;;;;;;;;;2.50;2.50;;;;;;;;5098025;27;45370;-45
2021/12/07 13:14:59;;;;;;;;;7.00;7.00;;;;;;;;5097863;27;45568;-43
2021/12/07 13:17:36;;;;;;;;;6.00;6.00;;;;;;;;5097212;27;45398;-45
2021/12/07 13:20:11;;;;;;;;;6.75;6.00;;;;;;;;5079552;27;45341;-46
2021/12/07 13:22:36;;;;;;;;;6.00;5.50;;;;;;;;5098002;27;45327;-44
2021/12/07 13:25:09;;;;;;;;;5.75;5.00;;;;;;;;5097528;27;45523;-44
2021/12/07 13:27:36;;;;;;;;;10.75;10.00;;;;;;;;5097608;27;46560;-45
2021/12/07 13:30:02;;;;;;;;;6.75;4.25;;;;;;;;5096396;27;45418;-47
2021/12/07 13:32:28;;;;;;;;;110.75;96.75;;;;;;;;5077121;28;45430;-45
2021/12/07 13:35:00;;;;;;;;;83.25;67.25;;;;;;;;5077098;27;45323;-44
2021/12/07 13:37:43;;;;;;;;;10.00;6.50;;;;;;;;5077297;28;47113;-44
2021/12/07 13:40:16;;;;;;;;;5.25;5.25;;;;;;;;5076916;28;45414;-47
2021/12/07 13:42:46;;;;;;;;;10.00;6.00;;;;;;;;5086433;27;45371;-44
2021/12/07 13:45:12;;;;;;;;;6.00;5.00;;;;;;;;5097428;27;45642;-48
2021/12/07 13:47:41;;;;;;;;;3.25;3.25;;;;;;;;5094726;27;46050;-45
2021/12/07 13:50:06;;;;;;;;;7.25;6.00;;;;;;;;5094089;27;45430;-47
2021/12/07 13:52:34;;;;;;;;;6.75;5.75;;;;;;;;5093252;27;45257;-45
2021/12/07 13:55:01;;;;;;;;;5.50;5.00;;;;;;;;5097423;27;45350;-45
2021/12/07 13:57:32;;;;;;;;;5.00;5.00;;;;;;;;5097094;27;46412;-46
2021/12/07 14:00:08;;;;;;;;;9.25;5.75;;;;;;;;5076297;27;45437;-46
2021/12/07 14:02:34;;;;;;;;;7.00;6.00;;;;;;;;5076587;27;45335;-45
2021/12/07 14:05:19;;;;;;;;;6.50;6.00;;;;;;;;5097102;27;45451;-45
2021/12/07 14:07:45;;;;;;;;;6.25;4.75;;;;;;;;5095314;27;46486;-45
2021/12/07 14:10:11;;;;;;;;;5.75;5.75;;;;;;;;5096250;27;46027;-45
2021/12/07 14:12:36;;;;;;;;;6.00;6.00;;;;;;;;5096428;27;45371;-43
2021/12/07 14:15:06;;;;;;;;;9.50;7.00;;;;;;;;5095969;27;45696;-47
2021/12/07 14:17:42;;;;;;;;;5.00;5.00;;;;;;;;5090633;27;47044;-45
2021/12/07 14:20:07;;;;;;;;;8.75;7.50;;;;;;;;5096576;27;45400;-45
2021/12/07 14:22:32;;;;;;;;;6.00;5.25;;;;;;;;5096348;27;45246;-46
2021/12/07 14:24:58;;;;;;;;;11.25;6.50;;;;;;;;5096302;27;45144;-45
2021/12/07 14:27:23;;;;;;;;;7.75;6.00;;;;;;;;5096684;27;45571;-45
2021/12/07 14:29:48;;;;;;;;;11.00;7.00;;;;;;;;5096425;27;45489;-45
2021/12/07 14:32:13;;;;;;;;;7.00;5.00;;;;;;;;5096616;27;45403;-44
2021/12/07 14:34:42;;;;;;;;;4.75;4.75;;;;;;;;5096584;27;45439;-47
2021/12/07 14:37:08;;;;;;;;;7.50;5.00;;;;;;;;5096891;27;45446;-44
2021/12/07 14:39:33;;;;;;;;;7.00;7.00;;;;;;;;5095276;27;45469;-44
2021/12/07 14:42:00;;;;;;;;;3.00;2.80;;;;;;;;5097053;27;45469;-44
2021/12/07 14:44:27;;;;;;;;;5.00;5.00;;;;;;;;5096906;27;45568;-46
2021/12/07 14:46:54;;;;;;;;;7.00;5.25;;;;;;;;5095694;27;45412;-45
2021/12/07 14:49:19;;;;;;;;;4.25;4.25;;;;;;;;5076514;27;45730;-45
2021/12/07 14:51:45;;;;;;;;;6.75;5.25;;;;;;;;5075883;28;45268;-47
2021/12/07 14:54:12;;;;;;;;;6.75;4.25;;;;;;;;5076289;28;45287;-44
2021/12/07 14:56:38;;;;;;;;;5.75;4.50;;;;;;;;5075277;28;45435;-44
2021/12/07 14:59:06;;;;;;;;;4.50;4.50;;;;;;;;5075997;27;45379;-45
2021/12/07 15:01:32;;;;;;;;;3.00;3.00;;;;;;;;5077669;27;45463;-43
2021/12/07 15:03:59;;;;;;;;;6.00;4.25;;;;;;;;5096495;27;45458;-43
2021/12/07 15:06:27;;;;;;;;;2.00;2.00;;;;;;;;5096340;27;45349;-46
2021/12/07 15:08:52;;;;;;;;;6.00;6.00;;;;;;;;5095650;27;45319;-45
2021/12/07 15:11:18;;;;;;;;;4.50;3.50;;;;;;;;5095967;27;45423;-44
2021/12/07 15:13:43;;;;;;;;;5.25;2.50;;;;;;;;5096545;27;45556;-44
2021/12/07 15:16:10;;;;;;;;;2.00;2.00;;;;;;;;5095939;27;46169;-43
2021/12/07 15:18:41;;;;;;;;;8.00;5.25;;;;;;;;5096600;27;45242;-44
2021/12/07 15:21:20;;;;;;;;;3.50;3.50;;;;;;;;5099821;27;45381;-43
2021/12/07 15:23:52;;;;;;;;;3.25;2.00;;;;;;;;5099873;27;45287;-47
2021/12/07 15:26:19;;;;;;;;;2.00;2.00;;;;;;;;5081197;27;46356;-44
2021/12/07 15:29:02;;;;;;;;;5.50;3.75;;;;;;;;5099415;27;45194;-43
2021/12/07 15:31:30;;;;;;;;;4.75;3.75;;;;;;;;5079012;28;45434;-44
2021/12/07 15:33:56;;;;;;;;;3.00;3.00;;;;;;;;5078900;28;45246;-45
2021/12/07 15:36:24;;;;;;;;;4.50;4.50;;;;;;;;5079012;28;45596;-48
2021/12/07 15:39:03;;;;;;;;;6.75;2.00;;;;;;;;5079010;28;45387;-45
2021/12/07 15:41:28;;;;;;;;;6.00;3.00;;;;;;;;5078753;27;45315;-45
2021/12/07 15:43:53;;;;;;;;;2.75;2.75;;;;;;;;5079184;27;45340;-45
2021/12/07 15:46:19;;;;;;;;;2.25;2.00;;;;;;;;5078869;28;46733;-44
2021/12/07 15:48:44;;;;;;;;;6.25;2.75;;;;;;;;5079006;28;45223;-46
2021/12/07 15:51:10;;;;;;;;;3.00;3.00;;;;;;;;5078832;28;45410;-45
2021/12/07 15:53:36;;;;;;;;;6.25;2.25;;;;;;;;5079266;28;45283;-46
2021/12/07 15:56:01;;;;;;;;;6.00;3.50;;;;;;;;5078091;27;45461;-46
2021/12/07 15:58:26;;;;;;;;;3.50;3.50;;;;;;;;5078596;27;45283;-45
2021/12/07 16:01:00;;;;;;;;;4.00;3.00;;;;;;;;5075004;28;45282;-47
2021/12/07 16:03:35;;;;;;;;;1.25;1.25;;;;;;;;5078405;27;45566;-44
2021/12/07 16:06:02;;;;;;;;;2.25;2.25;;;;;;;;5078639;27;47152;-44
2021/12/07 16:08:28;;;;;;;;;3.25;2.00;;;;;;;;5078298;28;45442;-46